Arklow Wind — EIKZ — position and weather

sailwx.info

Track history (hours):
 
Tides and Currents Weather Stations Pressure Air Temp Water Temp Dewpoint Dewpoint Depression Visibility Wind Speed Wind Dir Waves Ship Positions

Arklow Wind

Last reported at 2015-Jan-30 04:32 UTC. Time now 2015-Feb-01 04:08 UTC.
Position N 50°17' W 001°22'.

Length 136 m; draft 5.1 m.

Type: Cargo ship. MMSI: 250506000.

Date/timePositionNaut miles runAvg speedWind from/ knotsBaromVisibWave heightAir tempDewpointWater temp
2015-Jan-30 04:32N 50°17' W 001°22'59 7.2
2015-Jan-29 20:25N 50°32' E 000°06'1011.0
2015-Jan-29 19:32N 50°35' E 000°21'1010.4
2015-Jan-29 18:33N 50°38' E 000°36'1110.7
2015-Jan-29 17:34N 50°44' E 000°50'1111.0
2015-Jan-29 16:33N 50°51' E 001°03'1211.9
2015-Jan-29 15:34N 50°59' E 001°17'1313.1
2015-Jan-29 14:34N 51°06' E 001°35'8 7.5
2015-Jan-29 13:31N 51°04' E 001°47'0 0.0
2015-Jan-29 12:31N 51°04' E 001°47'0 0.1
2015-Jan-29 11:31N 51°04' E 001°47'0 0.0
2015-Jan-29 10:31N 51°04' E 001°47'0 0.1
2015-Jan-29 09:31N 51°04' E 001°47'4 4.1
2015-Jan-29 08:34N 51°03' E 001°53'10 9.8
2015-Jan-29 07:33N 51°03' E 002°09'3 1.4
2015-Jan-29 05:32N 51°00' E 002°11'0 0.0
2015-Jan-29 03:22N 51°00' E 002°11'0 0.0
2015-Jan-29 01:25N 51°00' E 002°11'0 0.0
2015-Jan-29 00:25N 51°00' E 002°11'0 0.0
2015-Jan-28 23:16N 51°00' E 002°11'0 0.0
2015-Jan-28 22:28N 51°00' E 002°11'0 0.0
2015-Jan-28 21:13N 51°00' E 002°11'0 0.0
2015-Jan-28 16:22N 51°00' E 002°11'0 0.0
2015-Jan-28 15:28N 51°00' E 002°11'0 0.0
2015-Jan-28 14:25N 51°00' E 002°11'0 0.0
2015-Jan-28 11:25N 51°00' E 002°11'0 0.0
2015-Jan-28 10:25N 51°00' E 002°11'0 0.0
2015-Jan-28 09:16N 51°00' E 002°11'0 0.0
2015-Jan-28 08:22N 51°00' E 002°11'0 0.0
2015-Jan-28 07:31N 51°00' E 002°11'0 0.0
2015-Jan-28 06:31N 51°00' E 002°11'0 0.0
2015-Jan-28 05:31N 51°00' E 002°11'0 0.0
2015-Jan-28 04:28N 51°00' E 002°11'0 0.0
2015-Jan-28 03:25N 51°00' E 002°11'0 0.0
2015-Jan-28 02:19N 51°00' E 002°11'0 0.0
2015-Jan-28 01:22N 51°00' E 002°11'0 0.0
2015-Jan-28 00:28N 51°00' E 002°11'0 0.0
2015-Jan-27 23:04N 51°00' E 002°11'0 0.0
2015-Jan-27 22:19N 51°00' E 002°11'0 0.0
2015-Jan-27 21:28N 51°00' E 002°11'0 0.0
2015-Jan-27 20:25N 51°00' E 002°11'0 0.0
2015-Jan-27 19:28N 51°00' E 002°11'0 0.0
2015-Jan-27 18:28N 51°00' E 002°11'0 0.0
2015-Jan-27 17:07N 51°00' E 002°11'0 0.0
2015-Jan-27 16:11N 51°00' E 002°11'0 0.0
2015-Jan-27 15:28N 51°00' E 002°11'0 0.0
2015-Jan-27 14:25N 51°00' E 002°11'0 0.0
2015-Jan-27 13:13N 51°00' E 002°11'0 0.0
2015-Jan-27 12:34N 51°00' E 002°11'0 0.0
2015-Jan-27 11:30N 51°00' E 002°11'0 0.0
2015-Jan-27 10:21N 51°00' E 002°11'0 0.0
2015-Jan-27 09:30N 51°00' E 002°11'0 0.0
2015-Jan-27 08:24N 51°00' E 002°11'0 0.0
2015-Jan-27 07:30N 51°00' E 002°11'0 0.0
2015-Jan-27 06:30N 51°00' E 002°11'0 0.0
2015-Jan-27 05:33N 51°00' E 002°11'0 0.0
2015-Jan-27 04:33N 51°00' E 002°11'0 0.0
2015-Jan-27 03:15N 51°00' E 002°11'0 0.0
2015-Jan-27 02:33N 51°00' E 002°11'0 0.0
2015-Jan-27 01:33N 51°00' E 002°11'0 0.0
2015-Jan-27 00:27N 51°00' E 002°11'0 0.0
2015-Jan-26 23:30N 51°00' E 002°11'0 0.0
2015-Jan-26 22:33N 51°00' E 002°11'0 0.0
2015-Jan-26 21:12N 51°00' E 002°11'0 0.0
2015-Jan-26 20:18N 51°00' E 002°11'0 0.0
2015-Jan-26 19:21N 51°00' E 002°11'0 0.0
2015-Jan-26 17:09N 51°00' E 002°11'0 0.0
2015-Jan-26 16:09N 51°00' E 002°11'0 0.0
2015-Jan-26 15:27N 51°00' E 002°11'0 0.0
2015-Jan-26 14:21N 51°00' E 002°11'0 0.0
2015-Jan-26 11:24N 51°00' E 002°11'0 0.0
2015-Jan-26 10:27N 51°00' E 002°11'0 0.0
2015-Jan-26 05:24N 51°00' E 002°11'0 0.0
2015-Jan-26 03:27N 51°00' E 002°11'0 0.0
2015-Jan-26 02:12N 51°00' E 002°11'0 0.0
2015-Jan-26 01:30N 51°00' E 002°11'0 0.0
2015-Jan-25 22:30N 51°00' E 002°11'1 0.8
2015-Jan-25 21:33N 51°01' E 002°10'12 8.3
2015-Jan-25 20:09N 51°02' E 001°52'711.8
2015-Jan-25 19:33N 51°00' E 001°42'11412.5
2015-Jan-25 10:27N 50°27' W 001°11'7612.0
2015-Jan-25 04:07N 50°11' W 003°08'24610.9
2015-Jan-24 05:27N 51°10' W 009°25'1212.9
2015-Jan-24 04:33N 51°15' W 009°42'1212.4
2015-Jan-24 03:33N 51°21' W 009°59'1311.6
2015-Jan-24 02:25N 51°29' W 010°16'3311.3
2015-Jan-23 23:28N 51°57' W 010°44'1111.7
2015-Jan-23 22:32N 52°08' W 010°43'2110.4
2015-Jan-23 20:30N 52°20' W 010°15'9 9.9
2015-Jan-23 19:33N 52°26' W 010°03'1010.0
2015-Jan-23 18:32N 52°31' W 009°48'  
Track history (hours):
 
Tides and Currents Weather Stations Pressure Air Temp Water Temp Dewpoint Dewpoint Depression Visibility Wind Speed Wind Dir Waves Ship Positions

Arklow Wind

Last reported at 2015-Jan-30 04:32 UTC. Time now 2015-Feb-01 04:08 UTC.
Position N 50°17' W 001°22'.

Length 136 m; draft 5.1 m.

Type: Cargo ship. MMSI: 250506000.

Date/timePositionNaut miles runAvg speedWind from/ knotsBaromVisibWave heightAir tempDewpointWater temp
2015-Jan-30 04:32N 50°17' W 001°22'59 7.2
2015-Jan-29 20:25N 50°32' E 000°06'1011.0
2015-Jan-29 19:32N 50°35' E 000°21'1010.4
2015-Jan-29 18:33N 50°38' E 000°36'1110.7
2015-Jan-29 17:34N 50°44' E 000°50'1111.0
2015-Jan-29 16:33N 50°51' E 001°03'1211.9
2015-Jan-29 15:34N 50°59' E 001°17'1313.1
2015-Jan-29 14:34N 51°06' E 001°35'8 7.5
2015-Jan-29 13:31N 51°04' E 001°47'0 0.0
2015-Jan-29 12:31N 51°04' E 001°47'0 0.1
2015-Jan-29 11:31N 51°04' E 001°47'0 0.0
2015-Jan-29 10:31N 51°04' E 001°47'0 0.1
2015-Jan-29 09:31N 51°04' E 001°47'4 4.1
2015-Jan-29 08:34N 51°03' E 001°53'10 9.8
2015-Jan-29 07:33N 51°03' E 002°09'3 1.4
2015-Jan-29 05:32N 51°00' E 002°11'0 0.0
2015-Jan-29 03:22N 51°00' E 002°11'0 0.0
2015-Jan-29 01:25N 51°00' E 002°11'0 0.0
2015-Jan-29 00:25N 51°00' E 002°11'0 0.0
2015-Jan-28 23:16N 51°00' E 002°11'0 0.0
2015-Jan-28 22:28N 51°00' E 002°11'0 0.0
2015-Jan-28 21:13N 51°00' E 002°11'0 0.0
2015-Jan-28 16:22N 51°00' E 002°11'0 0.0
2015-Jan-28 15:28N 51°00' E 002°11'0 0.0
2015-Jan-28 14:25N 51°00' E 002°11'0 0.0
2015-Jan-28 11:25N 51°00' E 002°11'0 0.0
2015-Jan-28 10:25N 51°00' E 002°11'0 0.0
2015-Jan-28 09:16N 51°00' E 002°11'0 0.0
2015-Jan-28 08:22N 51°00' E 002°11'0 0.0
2015-Jan-28 07:31N 51°00' E 002°11'0 0.0
2015-Jan-28 06:31N 51°00' E 002°11'0 0.0
2015-Jan-28 05:31N 51°00' E 002°11'0 0.0
2015-Jan-28 04:28N 51°00' E 002°11'0 0.0
2015-Jan-28 03:25N 51°00' E 002°11'0 0.0
2015-Jan-28 02:19N 51°00' E 002°11'0 0.0
2015-Jan-28 01:22N 51°00' E 002°11'0 0.0
2015-Jan-28 00:28N 51°00' E 002°11'0 0.0
2015-Jan-27 23:04N 51°00' E 002°11'0 0.0
2015-Jan-27 22:19N 51°00' E 002°11'0 0.0
2015-Jan-27 21:28N 51°00' E 002°11'0 0.0
2015-Jan-27 20:25N 51°00' E 002°11'0 0.0
2015-Jan-27 19:28N 51°00' E 002°11'0 0.0
2015-Jan-27 18:28N 51°00' E 002°11'0 0.0
2015-Jan-27 17:07N 51°00' E 002°11'0 0.0
2015-Jan-27 16:11N 51°00' E 002°11'0 0.0
2015-Jan-27 15:28N 51°00' E 002°11'0 0.0
2015-Jan-27 14:25N 51°00' E 002°11'0 0.0
2015-Jan-27 13:13N 51°00' E 002°11'0 0.0
2015-Jan-27 12:34N 51°00' E 002°11'0 0.0
2015-Jan-27 11:30N 51°00' E 002°11'0 0.0
2015-Jan-27 10:21N 51°00' E 002°11'0 0.0
2015-Jan-27 09:30N 51°00' E 002°11'0 0.0
2015-Jan-27 08:24N 51°00' E 002°11'0 0.0
2015-Jan-27 07:30N 51°00' E 002°11'0 0.0
2015-Jan-27 06:30N 51°00' E 002°11'0 0.0
2015-Jan-27 05:33N 51°00' E 002°11'0 0.0
2015-Jan-27 04:33N 51°00' E 002°11'0 0.0
2015-Jan-27 03:15N 51°00' E 002°11'0 0.0
2015-Jan-27 02:33N 51°00' E 002°11'0 0.0
2015-Jan-27 01:33N 51°00' E 002°11'0 0.0
2015-Jan-27 00:27N 51°00' E 002°11'0 0.0
2015-Jan-26 23:30N 51°00' E 002°11'0 0.0
2015-Jan-26 22:33N 51°00' E 002°11'0 0.0
2015-Jan-26 21:12N 51°00' E 002°11'0 0.0
2015-Jan-26 20:18N 51°00' E 002°11'0 0.0
2015-Jan-26 19:21N 51°00' E 002°11'0 0.0
2015-Jan-26 17:09N 51°00' E 002°11'0 0.0
2015-Jan-26 16:09N 51°00' E 002°11'0 0.0
2015-Jan-26 15:27N 51°00' E 002°11'0 0.0
2015-Jan-26 14:21N 51°00' E 002°11'0 0.0
2015-Jan-26 11:24N 51°00' E 002°11'0 0.0
2015-Jan-26 10:27N 51°00' E 002°11'0 0.0
2015-Jan-26 05:24N 51°00' E 002°11'0 0.0
2015-Jan-26 03:27N 51°00' E 002°11'0 0.0
2015-Jan-26 02:12N 51°00' E 002°11'0 0.0
2015-Jan-26 01:30N 51°00' E 002°11'0 0.0
2015-Jan-25 22:30N 51°00' E 002°11'1 0.8
2015-Jan-25 21:33N 51°01' E 002°10'12 8.3
2015-Jan-25 20:09N 51°02' E 001°52'711.8
2015-Jan-25 19:33N 51°00' E 001°42'11412.5
2015-Jan-25 10:27N 50°27' W 001°11'7612.0
2015-Jan-25 04:07N 50°11' W 003°08'24610.9
2015-Jan-24 05:27N 51°10' W 009°25'1212.9
2015-Jan-24 04:33N 51°15' W 009°42'1212.4
2015-Jan-24 03:33N 51°21' W 009°59'1311.6
2015-Jan-24 02:25N 51°29' W 010°16'3311.3
2015-Jan-23 23:28N 51°57' W 010°44'1111.7
2015-Jan-23 22:32N 52°08' W 010°43'2110.4
2015-Jan-23 20:30N 52°20' W 010°15'9 9.9
2015-Jan-23 19:33N 52°26' W 010°03'1010.0
2015-Jan-23 18:32N 52°31' W 009°48'  

Dump ship's entire track history